Check out our new BloomSky Weather System.

Active alerts


No alerts


Thunder radar  blitzortung!


Rain radar more information rain snow radar


Visit our other weather sites:

Template documentation
and downloads

And another site



Nearby METAR Reports

   
KIAH - Houston, TX
Updated: Jan 19 2018 4:53 am
Overcast  
Overcast  
   Wind: NNE 4.6 mph
Wind: NNE 4.6 mph
Temperature: 37.4°F
Wind Chill: 33.8°F
Dew Point: 26.6°F
Humidity: 65%
Barometer: 30.32 inHg
Clouds: Overcast
Visibility: 10 mi
Cloud details: Mostly Cloudy 5500 ft,
Mostly Cloudy 8000 ft,
Overcast 12000 ft
KIAH 191053Z 03004KT 10SM BKN055 BKN080 OVC120 03/M03 A3032 RMK AO2 SLP267 T00331028
KCLL - College Station, TX
Updated: Jan 19 2018 4:53 am
Overcast  
Overcast  
   Wind: ESE 3.5 mph
Wind: ESE 3.5 mph
Temperature: 37.4°F
Wind Chill: 35.6°F
Dew Point: 21.2°F
Humidity: 52%
Barometer: 30.31 inHg
Clouds: Overcast
Visibility: 10 mi
Cloud details: Overcast 3600 ft
KCLL 191053Z AUTO 11003KT 10SM OVC036 03/M06 A3031 RMK AO2 SLP263 T00331056 $
KBPT - Beaumont, TX
Updated: Jan 19 2018 4:53 am
Overcast  
Overcast  
   Wind: NNE 5.8 mph
Wind: NNE 5.8 mph
Temperature: 39.2°F
Wind Chill: 35.6°F
Dew Point: 28.4°F
Humidity: 65%
Barometer: 30.34 inHg
Clouds: Overcast
Visibility: 10 mi
Cloud details: Overcast 6500 ft
KBPT 191053Z AUTO 03005KT 10SM OVC065 04/M02 A3034 RMK AO2 SLP272 T00391022

Script developed by  Saratoga-weather.org Adapted for the template by  Weerstation Leuven

You find our weather info also at:

UK Metoffice

WeatherCloud

Weather Underground

Mid-South Weather Network

AWEKAS

Citizen Weather Observer Program (CWOP)

HAMweather, WeatherForYou, PWS Weather

Equipment we use:

Weather-station
Davis Vantage Vue

Weather-program
Meteohub

Weather-server
Debian 7.9 x86 (Guest)

Provider
DreamHost

Davis Vantage Vue

Meteohub

Debian 7.9 x86 (Guest)

DreamHost